地図

経路データ

SID SEASON NUMBER BASIN SUBBASIN NAME ISO_TIME NATURE LAT LON WMO_WIND WMO_PRES WMO_AGENCY TRACK_TYPE DIST2LAND LANDFALL IFLAG USA_AGENCY USA_ATCF_ID USA_LAT USA_LON USA_RECORD USA_STATUS USA_WIND USA_PRES USA_SSHS USA_R34_NE USA_R34_SE USA_R34_SW USA_R34_NW USA_R50_NE USA_R50_SE USA_R50_SW USA_R50_NW USA_R64_NE USA_R64_SE USA_R64_SW USA_R64_NW USA_POCI USA_ROCI USA_RMW USA_EYE TOKYO_LAT TOKYO_LON TOKYO_GRADE TOKYO_WIND TOKYO_PRES TOKYO_R50_DIR TOKYO_R50_LONG TOKYO_R50_SHORT TOKYO_R30_DIR TOKYO_R30_LONG TOKYO_R30_SHORT TOKYO_LAND CMA_LAT CMA_LON CMA_CAT CMA_WIND CMA_PRES HKO_LAT HKO_LON HKO_CAT HKO_WIND HKO_PRES NEWDELHI_LAT NEWDELHI_LON NEWDELHI_GRADE NEWDELHI_WIND NEWDELHI_PRES NEWDELHI_CI NEWDELHI_DP NEWDELHI_POCI REUNION_LAT REUNION_LON REUNION_TYPE REUNION_WIND REUNION_PRES REUNION_TNUM REUNION_CI REUNION_RMW REUNION_R34_NE REUNION_R34_SE REUNION_R34_SW REUNION_R34_NW REUNION_R50_NE REUNION_R50_SE REUNION_R50_SW REUNION_R50_NW REUNION_R64_NE REUNION_R64_SE REUNION_R64_SW REUNION_R64_NW BOM_LAT BOM_LON BOM_TYPE BOM_WIND BOM_PRES BOM_TNUM BOM_CI BOM_RMW BOM_R34_NE BOM_R34_SE BOM_R34_SW BOM_R34_NW BOM_R50_NE BOM_R50_SE BOM_R50_SW BOM_R50_NW BOM_R64_NE BOM_R64_SE BOM_R64_SW BOM_R64_NW BOM_ROCI BOM_POCI BOM_EYE BOM_POS_METHOD BOM_PRES_METHOD NADI_LAT NADI_LON NADI_CAT NADI_WIND NADI_PRES WELLINGTON_LAT WELLINGTON_LON WELLINGTON_WIND WELLINGTON_PRES DS824_LAT DS824_LON DS824_STAGE DS824_WIND DS824_PRES TD9636_LAT TD9636_LON TD9636_STAGE TD9636_WIND TD9636_PRES TD9635_LAT TD9635_LON TD9635_WIND TD9635_PRES TD9635_ROCI NEUMANN_LAT NEUMANN_LON NEUMANN_CLASS NEUMANN_WIND NEUMANN_PRES MLC_LAT MLC_LON MLC_CLASS MLC_WIND MLC_PRES USA_GUST BOM_GUST BOM_GUST_PER REUNION_GUST REUNION_GUST_PER USA_SEAHGT USA_SEARAD_NE USA_SEARAD_SE USA_SEARAD_SW USA_SEARAD_NW STORM_SPEED STORM_DIR
1941357N06150 1941 72 WP MM NOT_NAMED 1941-12-22 12:00:00 NR 6.00000 150.000 main 952 934 __________O___ -1 6.00000 150.000 3 12 272
1941357N06150 1941 72 WP MM NOT_NAMED 1941-12-22 15:00:00 NR 6.01934 149.381 main 934 920 __________P___ -1 6.01934 149.381 3 12 272
1941357N06150 1941 72 WP MM NOT_NAMED 1941-12-22 18:00:00 NR 6.04065 148.770 main 920 915 __________P___ -1 6.04065 148.770 3 12 272
1941357N06150 1941 72 WP MM NOT_NAMED 1941-12-22 21:00:00 NR 6.06663 148.174 main 923 919 __________P___ -1 6.06663 148.174 3 12 273
1941357N06150 1941 72 WP MM NOT_NAMED 1941-12-23 00:00:00 NR 6.10000 147.600 main 919 918 __________O___ -1 6.10000 147.600 4 11 274
1941357N06150 1941 72 WP MM NOT_NAMED 1941-12-23 03:00:00 NR 6.14255 147.053 main 918 918 __________P___ -1 6.14255 147.053 4 11 275
1941357N06150 1941 72 WP MM NOT_NAMED 1941-12-23 06:00:00 NR 6.19215 146.528 main 930 930 __________P___ -1 6.19216 146.528 4 10 276
1941357N06150 1941 72 WP MM NOT_NAMED 1941-12-23 09:00:00 NR 6.24569 146.013 main 932 932 __________P___ -1 6.24569 146.013 4 10 276
1941357N06150 1941 72 WP MM NOT_NAMED 1941-12-23 12:00:00 NR 6.30000 145.500 main 949 949 __________O___ -1 6.30000 145.500 4 10 275
1941357N06150 1941 72 WP MM NOT_NAMED 1941-12-23 15:00:00 NR 6.34150 145.003 main 957 957 __________P___ -1 6.34150 145.003 4 10 275
1941357N06150 1941 72 WP MM NOT_NAMED 1941-12-23 18:00:00 NR 6.38443 144.502 main 980 980 __________P___ -1 6.38443 144.502 4 10 275
1941357N06150 1941 72 WP MM NOT_NAMED 1941-12-23 21:00:00 NR 6.43517 143.975 main 995 995 __________P___ -1 6.43517 143.975 4 11 276
1941357N06150 1941 72 WP MM NOT_NAMED 1941-12-24 00:00:00 NR 6.50000 143.400 main 1027 1027 __________O___ -1 6.50000 143.400 4 12 277
1941357N06150 1941 72 WP MM NOT_NAMED 1941-12-24 03:00:00 NR 6.57342 142.754 main 1043 1018 __________P___ -1 6.57342 142.754 4 13 277
1941357N06150 1941 72 WP MM NOT_NAMED 1941-12-24 06:00:00 NR 6.66245 142.060 main 1024 999 __________P___ -1 6.66245 142.060 4 14 278
1941357N06150 1941 72 WP MM NOT_NAMED 1941-12-24 09:00:00 NR 6.77023 141.335 main 1002 987 __________P___ -1 6.77023 141.335 4 15 279
1941357N06150 1941 72 WP MM NOT_NAMED 1941-12-24 12:00:00 NR 6.90000 140.600 main 989 980 __________O___ -1 6.90000 140.600 4 15 281
1941357N06150 1941 72 WP MM NOT_NAMED 1941-12-24 15:00:00 NR 7.04084 139.894 main 980 966 __________P___ -1 7.04084 139.894 4 14 282
1941357N06150 1941 72 WP MM NOT_NAMED 1941-12-24 18:00:00 NR 7.20441 139.180 main 968 955 __________P___ -1 7.20441 139.180 4 15 284
1941357N06150 1941 72 WP MM NOT_NAMED 1941-12-24 21:00:00 NR 7.39077 138.450 main 963 952 __________P___ -1 7.39077 138.450 4 15 285
1941357N06150 1941 72 WP MM NOT_NAMED 1941-12-25 00:00:00 NR 7.60000 137.700 main 958 953 __________O___ -1 7.60000 137.700 4 16 286
1941357N06150 1941 72 WP MM NOT_NAMED 1941-12-25 03:00:00 NR 7.81590 136.929 main 963 961 __________P___ -1 7.81590 136.929 4 16 286
1941357N06150 1941 72 WP MM NOT_NAMED 1941-12-25 06:00:00 NR 8.05448 136.137 main 987 972 __________P___ -1 8.05448 136.137 4 17 287
1941357N06150 1941 72 WP MM NOT_NAMED 1941-12-25 09:00:00 NR 8.31581 135.326 main 961 876 __________P___ -1 8.31581 135.326 4 17 289
1941357N06150 1941 72 WP MM NOT_NAMED 1941-12-25 12:00:00 NR 8.60000 134.500 main 876 793 __________O___ -1 8.60000 134.500 4 18 289
1941357N06150 1941 72 WP MM NOT_NAMED 1941-12-25 15:00:00 NR 8.90783 133.612 main 782 702 __________P___ -1 8.90783 133.612 4 19 290
1941357N06150 1941 72 WP MM NOT_NAMED 1941-12-25 18:00:00 NR 9.23561 132.718 main 692 620 __________P___ -1 9.23561 132.718 4 19 291
1941357N06150 1941 72 WP MM NOT_NAMED 1941-12-25 21:00:00 NR 9.57048 131.865 main 620 541 __________P___ -1 9.57048 131.865 4 17 293
1941357N06150 1941 72 WP MM NOT_NAMED 1941-12-26 00:00:00 NR 9.90000 131.100 main 541 484 __________O___ -1 9.90000 131.100 4 15 295
1941357N06150 1941 72 WP MM NOT_NAMED 1941-12-26 03:00:00 NR 10.2061 130.465 main 484 431 __________P___ -1 10.2061 130.465 4 13 298
1941357N06150 1941 72 WP MM NOT_NAMED 1941-12-26 06:00:00 NR 10.5062 129.922 main 431 398 __________P___ -1 10.5062 129.922 4 12 301
1941357N06150 1941 72 WP MM NOT_NAMED 1941-12-26 09:00:00 NR 10.8033 129.443 main 393 349 __________P___ -1 10.8033 129.443 4 11 303
1941357N06150 1941 72 WP MM NOT_NAMED 1941-12-26 12:00:00 NR 11.1000 129.000 main 349 307 __________O___ -1 11.1000 129.000 4 11 304
1941357N06150 1941 72 WP MM NOT_NAMED 1941-12-26 15:00:00 NR 11.4037 128.542 main 298 262 __________P___ -1 11.4037 128.542 4 11 305
1941357N06150 1941 72 WP MM NOT_NAMED 1941-12-26 18:00:00 NR 11.7070 128.112 main 262 235 __________P___ -1 11.7070 128.112 4 10 306
1941357N06150 1941 72 WP MM NOT_NAMED 1941-12-26 21:00:00 NR 12.0069 127.701 main 235 196 __________P___ -1 12.0069 127.701 4 10 307
1941357N06150 1941 72 WP MM NOT_NAMED 1941-12-27 00:00:00 NR 12.3000 127.300 main 196 155 __________O___ -1 12.3000 127.300 4 10 305
1941357N06150 1941 72 WP MM NOT_NAMED 1941-12-27 03:00:00 NR 12.5700 126.864 main 158 127 __________P___ -1 12.5700 126.864 4 10 303
1941357N06150 1941 72 WP MM NOT_NAMED 1941-12-27 06:00:00 NR 12.8351 126.440 main 118 109 __________P___ -1 12.8351 126.440 4 10 304
1941357N06150 1941 72 WP MM NOT_NAMED 1941-12-27 09:00:00 NR 13.1076 126.045 main 109 109 __________P___ -1 13.1076 126.045 4 9 308
1941357N06150 1941 72 WP MM NOT_NAMED 1941-12-27 12:00:00 NR 13.4000 125.700 main 114 108 __________O___ -1 13.4000 125.700 4 9 313
1941357N06150 1941 72 WP MM NOT_NAMED 1941-12-27 15:00:00 NR 13.7161 125.372 main 108 76 __________P___ -1 13.7161 125.372 4 9 318
1941357N06150 1941 72 WP MM NOT_NAMED 1941-12-27 18:00:00 NR 14.0548 125.100 main 78 68 __________P___ -1 14.0548 125.100 4 8 327
1941357N06150 1941 72 WP MM NOT_NAMED 1941-12-27 21:00:00 NR 14.4161 124.904 main 77 77 __________P___ -1 14.4161 124.904 4 8 339
1941357N06150 1941 72 WP MM NOT_NAMED 1941-12-28 00:00:00 NR 14.8000 124.800 main 104 104 __________O___ -1 14.8000 124.800 4 8 351
1941357N06150 1941 72 WP MM NOT_NAMED 1941-12-28 03:00:00 NR 15.2194 124.770 main 144 144 __________P___ -1 15.2194 124.770 4 9 2
1941357N06150 1941 72 WP MM NOT_NAMED 1941-12-28 06:00:00 NR 15.6571 124.835 main 197 197 __________P___ -1 15.6571 124.835 4 9 13
1941357N06150 1941 72 WP MM NOT_NAMED 1941-12-28 09:00:00 NR 16.0913 124.982 main 246 246 __________P___ -1 16.0913 124.982 4 9 23
1941357N06150 1941 72 WP MM NOT_NAMED 1941-12-28 12:00:00 NR 16.5000 125.200 main 291 289 __________O___ -1 16.5000 125.200 4 8 24
1941357N06150 1941 72 WP MM NOT_NAMED 1941-12-28 15:00:00 NR 16.8352 125.333 main 298 297 __________P___ -1 16.8352 125.333 4 7 27
1941357N06150 1941 72 WP MM NOT_NAMED 1941-12-28 18:00:00 NR 17.1459 125.547 main 319 319 __________P___ -1 17.1459 125.547 4 8 42
1941357N06150 1941 72 WP MM NOT_NAMED 1941-12-28 21:00:00 NR 17.4588 125.912 main 365 365 __________P___ -1 17.4588 125.912 4 11 54
1941357N06150 1941 72 WP MM NOT_NAMED 1941-12-29 00:00:00 NR 17.8000 126.500 main 433 433 __________O___ -1 17.8000 126.500 7 16 60
1941357N06150 1941 72 WP MM NOT_NAMED 1941-12-29 03:00:00 NR 18.2549 127.371 main 538 538 __________P___ -1 18.2549 127.371 7 21 64
1941357N06150 1941 72 WP MM NOT_NAMED 1941-12-29 06:00:00 NR 18.7273 128.468 main 654 654 __________P___ -1 18.7273 128.468 7 24 68
1941357N06150 1941 72 WP MM NOT_NAMED 1941-12-29 09:00:00 NR 19.1606 129.706 main 784 784 __________P___ -1 19.1606 129.706 7 25 72
1941357N06150 1941 72 WP MM NOT_NAMED 1941-12-29 12:00:00 NR 19.5000 131.000 main 923 923 __________O___ -1 19.5000 131.000 7 25 77
1941357N06150 1941 72 WP MM NOT_NAMED 1941-12-29 15:00:00 NR 19.7076 132.279 main 1060 1060 __________P___ -1 19.7076 132.279 7 24 83
1941357N06150 1941 72 WP MM NOT_NAMED 1941-12-29 18:00:00 NR 19.8038 133.534 main 1171 1171 __________P___ -1 19.8038 133.534 7 23 87
1941357N06150 1941 72 WP MM NOT_NAMED 1941-12-29 21:00:00 NR 19.8231 134.771 main 1288 1288 __________P___ -1 19.8231 134.771 7 23 90
1941357N06150 1941 72 WP MM NOT_NAMED 1941-12-30 00:00:00 NR 19.8000 136.000 main 1359 __________O___ -1 19.8000 136.000 7 23 91

デジタル台風データ・検索

IBTrACS Databaseについて

本データベースは、米国NOAAが公開する1842年以降の世界の熱帯低気圧のベストトラックデータアーカイブInternational Best Track Archive for Climate Stewardship (IBTrACS)を、ウェブで閲覧しやすい形式に変換したものです。

最終更新日:2021-10-19